^^
Paulen-Weather Station Historical Data
Daily Summary for January 26, 2022 Units:  Metric    English   Both
Daily Weekly Monthly Yearly Custom
  High: Low: Average:
Temperature: 8 °C 6 °C 6.8 °C
Dew Point: 6 °C 3 °C 4.7 °C
Humidity: 98% 73% 87%
Wind Speed: 40km/h 4km/h 17.5km/h
Wind Gust: 32km/h - -
Wind- - WNW
Pressure: 1020.89 hPa 1003.49 hPa -
Precipitation: 0.61 mm    
Historical Graphs
 
 
Tabular Data for January 26, 2022
Time Temperature Dew Point Pressure Wind Wind Speed Wind Gust Humidity Rainfall Rate (Hourly) solar
00:04 6 °C 5 °C 1020.83 hPa WNW 14 km/h 12 km/h 93% 0 mm 0 W/m2
00:09 6 °C 5 °C 1020.76 hPa NW 16 km/h 11 km/h 93% 0 mm 0 W/m2
00:14 6 °C 5 °C 1020.66 hPa NW 18 km/h 12 km/h 93% 0 mm 0 W/m2
00:19 6 °C 5 °C 1020.76 hPa NW 13 km/h 9 km/h 93% 0 mm 0 W/m2
00:24 6 °C 5 °C 1020.89 hPa NW 17 km/h 11 km/h 93% 0 mm 0 W/m2
00:29 6 °C 5 °C 1020.83 hPa NW 15 km/h 10 km/h 93% 0 mm 0 W/m2
00:34 6 °C 5 °C 1020.73 hPa NW 18 km/h 10 km/h 93% 0 mm 0 W/m2
00:39 6 °C 5 °C 1020.59 hPa NW 11 km/h 7 km/h 93% 0 mm 0 W/m2
00:44 6 °C 5 °C 1020.45 hPa WNW 14 km/h 11 km/h 93% 0 mm 0 W/m2
00:49 6 °C 5 °C 1020.42 hPa NW 11 km/h 7 km/h 93% 0 mm 0 W/m2
00:54 6 °C 5 °C 1020.39 hPa NNW 13 km/h 10 km/h 93% 0 mm 0 W/m2
00:59 6 °C 5 °C 1020.29 hPa NW 17 km/h 12 km/h 93% 0 mm 0 W/m2
01:04 6 °C 5 °C 1020.22 hPa NW 10 km/h 6 km/h 93% 0 mm 0 W/m2
01:09 6 °C 5 °C 1020.05 hPa WNW 12 km/h 8 km/h 93% 0 mm 0 W/m2
01:14 6 °C 5 °C 1020.05 hPa WNW 10 km/h 7 km/h 93% 0 mm 0 W/m2
01:19 6 °C 5 °C 1020.01 hPa WNW 14 km/h 9 km/h 93% 0 mm 0 W/m2
01:24 7 °C 6 °C 1019.88 hPa WNW 15 km/h 10 km/h 93% 0 mm 0 W/m2
01:29 7 °C 6 °C 1019.84 hPa NNW 13 km/h 8 km/h 94% 0 mm 0 W/m2
01:34 7 °C 6 °C 1019.57 hPa WNW 11 km/h 9 km/h 94% 0 mm 0 W/m2
01:39 7 °C 6 °C 1019.51 hPa NW 20 km/h 10 km/h 94% 0 mm 0 W/m2
01:44 7 °C 6 °C 1019.51 hPa NNW 18 km/h 14 km/h 93% 0 mm 0 W/m2
01:49 7 °C 6 °C 1019.37 hPa NW 14 km/h 10 km/h 93% 0 mm 0 W/m2
01:54 7 °C 6 °C 1019.34 hPa NW 16 km/h 11 km/h 93% 0 mm 0 W/m2
01:59 7 °C 6 °C 1019.17 hPa NW 17 km/h 13 km/h 93% 0 mm 0 W/m2
02:04 7 °C 6 °C 1019.07 hPa NW 16 km/h 13 km/h 94% 0 mm 0 W/m2
02:09 7 °C 6 °C 1018.9 hPa NW 12 km/h 10 km/h 94% 0 mm 0 W/m2
02:14 7 °C 6 °C 1018.73 hPa NNW 16 km/h 10 km/h 94% 0 mm 0 W/m2
02:19 7 °C 6 °C 1018.63 hPa NNW 16 km/h 13 km/h 94% 0 mm 0 W/m2
02:24 7 °C 6 °C 1018.59 hPa WNW 16 km/h 12 km/h 94% 0 mm 0 W/m2
02:29 7 °C 6 °C 1018.52 hPa NW 23 km/h 16 km/h 94% 0 mm 0 W/m2
02:34 7 °C 6 °C 1018.56 hPa NNW 15 km/h 10 km/h 95% 0 mm 0 W/m2
02:39 7 °C 6 °C 1018.42 hPa NNW 16 km/h 11 km/h 95% 0 mm 0 W/m2
02:44 7 °C 6 °C 1018.32 hPa NW 18 km/h 14 km/h 95% 0 mm 0 W/m2
02:49 7 °C 6 °C 1018.29 hPa NNW 20 km/h 11 km/h 95% 0 mm 0 W/m2
02:54 7 °C 6 °C 1018.22 hPa NW 18 km/h 13 km/h 95% 0 mm 0 W/m2
02:59 7 °C 6 °C 1018.25 hPa NW 19 km/h 11 km/h 95% 0 mm 0 W/m2
03:04 7 °C 6 °C 1018.12 hPa NNW 17 km/h 11 km/h 95% 0 mm 0 W/m2
03:09 7 °C 6 °C 1018.02 hPa NNW 12 km/h 10 km/h 95% 0 mm 0 W/m2
03:14 7 °C 6 °C 1017.98 hPa NW 22 km/h 12 km/h 95% 0 mm 0 W/m2
03:19 7 °C 6 °C 1017.95 hPa NW 12 km/h 10 km/h 95% 0 mm 0 W/m2
03:24 7 °C 6 °C 1017.88 hPa WNW 24 km/h 12 km/h 94% 0 mm 0 W/m2
03:29 7 °C 6 °C 1017.64 hPa NW 17 km/h 12 km/h 94% 0 mm 0 W/m2
03:34 7 °C 6 °C 1017.58 hPa NW 19 km/h 11 km/h 94% 0 mm 0 W/m2
03:39 7 °C 6 °C 1017.37 hPa NW 17 km/h 12 km/h 94% 0 mm 0 W/m2
03:44 7 °C 6 °C 1017.1 hPa NW 21 km/h 13 km/h 94% 0 mm 0 W/m2
03:49 7 °C 6 °C 1016.97 hPa NW 19 km/h 12 km/h 94% 0 mm 0 W/m2
03:54 7 °C 6 °C 1016.93 hPa NW 21 km/h 14 km/h 94% 0 mm 0 W/m2
03:59 7 °C 6 °C 1017.03 hPa NW 19 km/h 13 km/h 93% 0 mm 0 W/m2
04:04 7 °C 6 °C 1017.17 hPa NW 19 km/h 11 km/h 93% 0 mm 0 W/m2
04:09 7 °C 6 °C 1017.2 hPa NW 15 km/h 10 km/h 93% 0 mm 0 W/m2
04:14 7 °C 6 °C 1017.14 hPa SSW 16 km/h 13 km/h 93% 0 mm 0 W/m2
04:19 7 °C 6 °C 1017.1 hPa NW 16 km/h 10 km/h 93% 0 mm 0 W/m2
04:24 7 °C 6 °C 1017 hPa NW 17 km/h 9 km/h 92% 0 mm 0 W/m2
04:29 7 °C 6 °C 1016.93 hPa WNW 13 km/h 13 km/h 92% 0 mm 0 W/m2
04:34 7 °C 6 °C 1016.9 hPa NW 16 km/h 11 km/h 92% 0 mm 0 W/m2
04:39 7 °C 6 °C 1016.73 hPa WNW 13 km/h 9 km/h 92% 0 mm 0 W/m2
04:44 7 °C 6 °C 1016.56 hPa WNW 15 km/h 10 km/h 92% 0 mm 0 W/m2
04:49 7 °C 6 °C 1016.46 hPa NW 12 km/h 7 km/h 91% 0 mm 0 W/m2
04:54 7 °C 6 °C 1016.22 hPa NW 16 km/h 9 km/h 91% 0 mm 0 W/m2
04:59 7 °C 6 °C 1016.15 hPa NNW 17 km/h 9 km/h 91% 0 mm 0 W/m2
05:04 7 °C 6 °C 1016.12 hPa NW 20 km/h 11 km/h 91% 0 mm 0 W/m2
05:09 7 °C 6 °C 1016.02 hPa NW 19 km/h 13 km/h 92% 0 mm 0 W/m2
05:14 7 °C 6 °C 1015.92 hPa NW 21 km/h 12 km/h 92% 0 mm 0 W/m2
05:19 7 °C 6 °C 1015.78 hPa NW 25 km/h 14 km/h 93% 0 mm 0 W/m2
05:24 7 °C 6 °C 1015.71 hPa NW 17 km/h 14 km/h 93% 0 mm 0 W/m2
05:29 7 °C 6 °C 1015.68 hPa NW 19 km/h 16 km/h 93% 0 mm 0 W/m2
05:34 7 °C 6 °C 1015.58 hPa NW 17 km/h 11 km/h 94% 0 mm 0 W/m2
05:39 7 °C 6 °C 1015.51 hPa WNW 19 km/h 10 km/h 94% 0 mm 0 W/m2
05:44 7 °C 6 °C 1015.44 hPa NNW 17 km/h 10 km/h 94% 0 mm 0 W/m2
05:49 7 °C 6 °C 1015.41 hPa WNW 13 km/h 10 km/h 94% 0 mm 0 W/m2
05:54 7 °C 6 °C 1015.37 hPa NW 16 km/h 11 km/h 94% 0 mm 0 W/m2
05:59 7 °C 6 °C 1015.31 hPa NW 16 km/h 9 km/h 94% 0 mm 0 W/m2
06:04 7 °C 6 °C 1015.24 hPa NW 16 km/h 13 km/h 94% 0 mm 0 W/m2
06:09 7 °C 6 °C 1015.1 hPa NW 17 km/h 11 km/h 93% 0 mm 0 W/m2
06:14 7 °C 6 °C 1015.04 hPa NW 18 km/h 12 km/h 92% 0 mm 0 W/m2
06:19 7 °C 6 °C 1015 hPa NW 21 km/h 12 km/h 91% 0 mm 0 W/m2
06:24 7 °C 6 °C 1015.07 hPa NW 19 km/h 12 km/h 91% 0 mm 0 W/m2
06:29 7 °C 6 °C 1015.07 hPa NW 22 km/h 16 km/h 90% 0 mm 0 W/m2
06:34 7 °C 5 °C 1014.9 hPa NW 27 km/h 16 km/h 88% 0 mm 0 W/m2
06:39 7 °C 5 °C 1014.87 hPa NW 19 km/h 14 km/h 87% 0 mm 0 W/m2
06:44 7 °C 5 °C 1014.9 hPa NNW 24 km/h 19 km/h 86% 0 mm 0 W/m2
06:49 7 °C 5 °C 1014.87 hPa NW 21 km/h 17 km/h 85% 0 mm 0 W/m2
06:54 7 °C 5 °C 1014.9 hPa NW 25 km/h 20 km/h 84% 0 mm 0 W/m2
06:59 7 °C 4 °C 1014.87 hPa NW 21 km/h 16 km/h 82% 0 mm 0 W/m2
07:04 7 °C 4 °C 1015 hPa NW 15 km/h 10 km/h 83% 0 mm 0 W/m2
07:09 7 °C 4 °C 1014.83 hPa NW 16 km/h 11 km/h 83% 0 mm 0 W/m2
07:14 7 °C 4 °C 1014.56 hPa NW 17 km/h 15 km/h 84% 0 mm 0 W/m2
07:19 7 °C 4 °C 1014.56 hPa NW 19 km/h 15 km/h 84% 0 mm 0 W/m2
07:24 7 °C 4 °C 1014.43 hPa NW 17 km/h 13 km/h 85% 0 mm 0 W/m2
07:29 7 °C 5 °C 1014.33 hPa WNW 20 km/h 13 km/h 86% 0 mm 0 W/m2
07:34 7 °C 5 °C 1014.36 hPa NNW 17 km/h 15 km/h 86% 0 mm 0 W/m2
07:39 7 °C 5 °C 1014.49 hPa NNW 20 km/h 10 km/h 86% 0 mm 0 W/m2
07:44 7 °C 5 °C 1014.49 hPa NNW 14 km/h 9 km/h 86% 0 mm 0 W/m2
07:49 7 °C 5 °C 1014.46 hPa WNW 14 km/h 10 km/h 87% 0 mm 0 W/m2
07:54 7 °C 5 °C 1014.22 hPa NW 18 km/h 11 km/h 86% 0 mm 0 W/m2
07:59 7 °C 5 °C 1014.12 hPa NW 17 km/h 9 km/h 85% 0 mm 0 W/m2
08:04 7 °C 5 °C 1014.16 hPa NW 14 km/h 13 km/h 85% 0 mm 0 W/m2
08:09 7 °C 4 °C 1014.19 hPa NW 22 km/h 12 km/h 84% 0 mm 0 W/m2
08:14 7 °C 4 °C 1014.33 hPa NW 19 km/h 13 km/h 83% 0 mm 0 W/m2
08:19 7 °C 4 °C 1014.49 hPa NW 19 km/h 13 km/h 82% 0 mm 0 W/m2
08:24 7 °C 4 °C 1014.6 hPa NNW 22 km/h 16 km/h 82% 0 mm 0 W/m2
08:29 7 °C 4 °C 1014.66 hPa NW 26 km/h 17 km/h 81% 0 mm 0 W/m2
08:34 7 °C 4 °C 1014.66 hPa NNW 28 km/h 22 km/h 80% 0 mm 0 W/m2
08:39 7 °C 3 °C 1014.7 hPa NNW 28 km/h 21 km/h 78% 0 mm 0 W/m2
08:44 7 °C 3 °C 1014.87 hPa NNW 24 km/h 17 km/h 77% 0 mm 0 W/m2
08:49 7 °C 3 °C 1014.9 hPa NNW 22 km/h 17 km/h 77% 0 mm 5 W/m2
08:54 7 °C 3 °C 1014.87 hPa NNW 16 km/h 15 km/h 78% 0 mm 5 W/m2
08:59 7 °C 3 °C 1015 hPa NNW 15 km/h 12 km/h 78% 0 mm 7 W/m2
09:04 6 °C 3 °C 1015.1 hPa NNW 12 km/h 13 km/h 78% 0 mm 9 W/m2
09:09 6 °C 3 °C 1015.24 hPa NNW 18 km/h 17 km/h 79% 0 mm 9 W/m2
09:14 6 °C 3 °C 1015.34 hPa NW 18 km/h 18 km/h 78% 0 mm 12 W/m2
09:19 6 °C 3 °C 1015.41 hPa NNW 19 km/h 15 km/h 78% 0 mm 21 W/m2
09:24 6 °C 3 °C 1015.58 hPa NNW 16 km/h 13 km/h 79% 0 mm 33 W/m2
09:29 6 °C 3 °C 1015.71 hPa NW 17 km/h 14 km/h 79% 0 mm 62 W/m2
09:34 6 °C 3 °C 1015.82 hPa NNW 20 km/h 15 km/h 79% 0 mm 60 W/m2
09:39 6 °C 3 °C 1015.78 hPa NW 9 km/h 5 km/h 79% 0 mm 58 W/m2
09:44 6 °C 3 °C 1015.92 hPa WNW 10 km/h 9 km/h 79% 0 mm 51 W/m2
09:49 6 °C 3 °C 1015.92 hPa WNW 14 km/h 12 km/h 79% 0 mm 30 W/m2
09:54 6 °C 3 °C 1015.82 hPa NW 9 km/h 6 km/h 79% 0 mm 54 W/m2
09:59 6 °C 3 °C 1015.82 hPa NW 9 km/h 9 km/h 79% 0 mm 65 W/m2
10:04 6 °C 3 °C 1015.82 hPa NW 8 km/h 6 km/h 79% 0 mm 97 W/m2
10:09 6 °C 3 °C 1015.88 hPa NW 12 km/h 8 km/h 79% 0 mm 97 W/m2
10:14 6 °C 3 °C 1015.88 hPa NW 7 km/h 8 km/h 79% 0 mm 97 W/m2
10:19 6 °C 3 °C 1015.85 hPa NW 12 km/h 8 km/h 79% 0 mm 90 W/m2
10:24 6 °C 3 °C 1015.82 hPa WNW 7 km/h 5 km/h 79% 0 mm 100 W/m2
10:29 6 °C 3 °C 1015.54 hPa WNW 8 km/h 6 km/h 79% 0 mm 105 W/m2
10:34 6 °C 3 °C 1015.44 hPa NW 9 km/h 7 km/h 79% 0 mm 113 W/m2
10:39 7 °C 3 °C 1015.44 hPa WNW 11 km/h 7 km/h 80% 0 mm 118 W/m2
10:44 7 °C 3 °C 1015.48 hPa WNW 9 km/h 7 km/h 80% 0 mm 114 W/m2
10:49 7 °C 3 °C 1015.48 hPa WNW 8 km/h 7 km/h 79% 0 mm 130 W/m2
10:54 7 °C 3 °C 1015.48 hPa WNW 10 km/h 6 km/h 79% 0 mm 135 W/m2
10:59 7 °C 3 °C 1015.48 hPa WNW 10 km/h 8 km/h 78% 0 mm 139 W/m2
11:04 7 °C 3 °C 1015.48 hPa NW 11 km/h 9 km/h 78% 0 mm 146 W/m2
11:09 7 °C 3 °C 1015.51 hPa WNW 13 km/h 8 km/h 78% 0 mm 158 W/m2
11:14 7 °C 3 °C 1015.44 hPa NNW 16 km/h 12 km/h 77% 0 mm 160 W/m2
11:19 7 °C 3 °C 1015.31 hPa NNW 18 km/h 14 km/h 77% 0 mm 156 W/m2
11:24 7 °C 3 °C 1015.31 hPa NW 16 km/h 10 km/h 77% 0 mm 167 W/m2
11:29 7 °C 3 °C 1015.24 hPa NW 17 km/h 10 km/h 77% 0 mm 169 W/m2
11:34 7 °C 3 °C 1015.14 hPa NW 15 km/h 10 km/h 77% 0 mm 116 W/m2
11:39 7 °C 3 °C 1015.21 hPa NW 18 km/h 11 km/h 77% 0 mm 181 W/m2
11:44 7 °C 3 °C 1015.21 hPa NW 20 km/h 16 km/h 77% 0 mm 186 W/m2
11:49 7 °C 3 °C 1015.21 hPa NW 13 km/h 12 km/h 76% 0 mm 183 W/m2
11:54 7 °C 3 °C 1015.17 hPa NW 16 km/h 9 km/h 75% 0 mm 178 W/m2
11:59 7 °C 3 °C 1015.07 hPa NW 16 km/h 12 km/h 75% 0 mm 179 W/m2
12:04 7 °C 3 °C 1015.04 hPa NW 18 km/h 11 km/h 75% 0 mm 181 W/m2
12:09 7 °C 3 °C 1015 hPa WNW 15 km/h 9 km/h 74% 0 mm 179 W/m2
12:14 7 °C 3 °C 1014.97 hPa NW 14 km/h 9 km/h 74% 0 mm 98 W/m2
12:19 7 °C 3 °C 1014.97 hPa NW 16 km/h 10 km/h 75% 0 mm 69 W/m2
12:24 7 °C 3 °C 1014.9 hPa NW 16 km/h 11 km/h 76% 0 mm 72 W/m2
12:29 7 °C 3 °C 1014.97 hPa NW 18 km/h 11 km/h 77% 0 mm 65 W/m2
12:34 7 °C 3 °C 1015 hPa NW 12 km/h 7 km/h 77% 0 mm 63 W/m2
12:39 7 °C 4 °C 1015.04 hPa WNW 13 km/h 8 km/h 78% 0 mm 76 W/m2
12:44 7 °C 4 °C 1015 hPa NW 13 km/h 10 km/h 80% 0 mm 62 W/m2
12:49 7 °C 4 °C 1014.93 hPa NNW 10 km/h 9 km/h 81% 0 mm 118 W/m2
12:54 6 °C 4 °C 1014.9 hPa NW 12 km/h 9 km/h 82% 0 mm 183 W/m2
12:59 6 °C 4 °C 1014.83 hPa WNW 10 km/h 9 km/h 83% 0 mm 185 W/m2
13:04 7 °C 4 °C 1014.77 hPa WNW 6 km/h 5 km/h 84% 0 mm 185 W/m2
13:09 7 °C 4 °C 1014.8 hPa NW 9 km/h 7 km/h 83% 0 mm 181 W/m2
13:14 7 °C 4 °C 1014.87 hPa NW 16 km/h 10 km/h 81% 0 mm 181 W/m2
13:19 7 °C 4 °C 1014.87 hPa NW 13 km/h 10 km/h 80% 0 mm 179 W/m2
13:24 7 °C 4 °C 1014.77 hPa NW 11 km/h 7 km/h 80% 0 mm 176 W/m2
13:29 7 °C 4 °C 1014.8 hPa WNW 14 km/h 12 km/h 79% 0 mm 183 W/m2
13:34 7 °C 4 °C 1014.8 hPa NW 13 km/h 9 km/h 78% 0 mm 179 W/m2
13:39 7 °C 4 °C 1014.7 hPa WNW 9 km/h 6 km/h 78% 0 mm 179 W/m2
13:44 7 °C 4 °C 1014.7 hPa NW 11 km/h 6 km/h 78% 0 mm 186 W/m2
13:49 7 °C 4 °C 1014.7 hPa NW 10 km/h 5 km/h 78% 0 mm 188 W/m2
13:54 7 °C 4 °C 1014.6 hPa WNW 8 km/h 5 km/h 78% 0 mm 172 W/m2
13:59 7 °C 4 °C 1014.46 hPa NW 9 km/h 5 km/h 78% 0 mm 121 W/m2
14:04 7 °C 4 °C 1014.36 hPa NW 15 km/h 13 km/h 77% 0 mm 98 W/m2
14:09 7 °C 4 °C 1014.33 hPa NW 18 km/h 13 km/h 76% 0 mm 97 W/m2
14:14 7 °C 3 °C 1014.29 hPa NW 15 km/h 11 km/h 76% 0 mm 120 W/m2
14:19 7 °C 4 °C 1014.33 hPa NW 11 km/h 9 km/h 76% 0 mm 97 W/m2
14:24 8 °C 4 °C 1014.36 hPa WNW 14 km/h 8 km/h 76% 0 mm 114 W/m2
14:29 8 °C 4 °C 1014.43 hPa NNW 11 km/h 7 km/h 75% 0 mm 111 W/m2
14:34 8 °C 4 °C 1014.56 hPa NW 12 km/h 9 km/h 75% 0 mm 77 W/m2
14:39 8 °C 4 °C 1014.56 hPa NW 16 km/h 9 km/h 75% 0 mm 77 W/m2
14:44 8 °C 4 °C 1014.49 hPa NW 10 km/h 8 km/h 74% 0 mm 46 W/m2
14:49 8 °C 4 °C 1014.36 hPa NW 9 km/h 5 km/h 74% 0 mm 44 W/m2
14:54 8 °C 3 °C 1014.36 hPa NW 10 km/h 6 km/h 74% 0 mm 42 W/m2
14:59 8 °C 3 °C 1014.36 hPa NW 8 km/h 8 km/h 74% 0 mm 40 W/m2
15:04 8 °C 4 °C 1014.22 hPa NW 5 km/h 5 km/h 75% 0 mm 53 W/m2
15:09 8 °C 4 °C 1014.29 hPa WNW 4 km/h 5 km/h 75% 0 mm 54 W/m2
15:14 8 °C 4 °C 1014.26 hPa NW 12 km/h 7 km/h 75% 0 mm 81 W/m2
15:19 8 °C 4 °C 1014.22 hPa WNW 7 km/h 4 km/h 75% 0 mm 95 W/m2
15:24 8 °C 4 °C 1014.22 hPa NW 10 km/h 8 km/h 74% 0 mm 88 W/m2
15:29 8 °C 4 °C 1014.16 hPa WNW 10 km/h 5 km/h 74% 0 mm 83 W/m2
15:34 8 °C 4 °C 1014.05 hPa NW 11 km/h 10 km/h 74% 0 mm 83 W/m2
15:39 8 °C 4 °C 1014.09 hPa NW 9 km/h 6 km/h 73% 0 mm 56 W/m2
15:44 8 °C 3 °C 1014.09 hPa NW 8 km/h 6 km/h 73% 0 mm 56 W/m2
15:49 8 °C 3 °C 1013.99 hPa NW 7 km/h 7 km/h 74% 0 mm 40 W/m2
15:54 8 °C 3 °C 1013.99 hPa NW 10 km/h 8 km/h 74% 0 mm 30 W/m2
15:59 8 °C 3 °C 1013.95 hPa NW 11 km/h 7 km/h 74% 0 mm 28 W/m2
16:04 7 °C 3 °C 1013.85 hPa NW 12 km/h 8 km/h 74% 0 mm 26 W/m2
16:09 7 °C 3 °C 1013.75 hPa WNW 10 km/h 8 km/h 74% 0 mm 19 W/m2
16:14 7 °C 3 °C 1013.75 hPa WNW 8 km/h 4 km/h 76% 0 mm 19 W/m2
16:19 7 °C 4 °C 1013.75 hPa WNW 10 km/h 6 km/h 78% 0 mm 19 W/m2
16:24 7 °C 4 °C 1013.68 hPa WNW 10 km/h 7 km/h 79% 0 mm 18 W/m2
16:29 7 °C 4 °C 1013.68 hPa NNW 14 km/h 11 km/h 79% 0 mm 12 W/m2
16:34 7 °C 3 °C 1013.65 hPa NW 16 km/h 12 km/h 79% 0 mm 7 W/m2
16:39 7 °C 4 °C 1013.72 hPa NNW 18 km/h 12 km/h 80% 0 mm 5 W/m2
16:44 7 °C 4 °C 1013.72 hPa NW 12 km/h 11 km/h 80% 0 mm 5 W/m2
16:49 7 °C 4 °C 1013.72 hPa NW 11 km/h 10 km/h 80% 0 mm 0 W/m2
16:54 7 °C 4 °C 1013.72 hPa NW 14 km/h 10 km/h 81% 0 mm 0 W/m2
16:59 7 °C 4 °C 1013.58 hPa NNW 13 km/h 10 km/h 82% 0 mm 0 W/m2
17:04 7 °C 4 °C 1013.48 hPa NW 13 km/h 10 km/h 83% 0 mm 0 W/m2
17:09 7 °C 4 °C 1013.44 hPa NW 14 km/h 10 km/h 84% 0 mm 0 W/m2
17:14 7 °C 4 °C 1013.44 hPa WNW 14 km/h 11 km/h 85% 0 mm 0 W/m2
17:19 7 °C 4 °C 1013.44 hPa NNW 13 km/h 8 km/h 85% 0 mm 0 W/m2
17:24 7 °C 4 °C 1013.44 hPa N 14 km/h 12 km/h 85% 0 mm 0 W/m2
17:29 7 °C 4 °C 1013.48 hPa N 13 km/h 14 km/h 85% 0 mm 0 W/m2
17:34 7 °C 4 °C 1013.44 hPa NW 18 km/h 13 km/h 85% 0 mm 0 W/m2
17:39 7 °C 5 °C 1013.28 hPa NNE 18 km/h 14 km/h 86% 0 mm 0 W/m2
17:44 7 °C 5 °C 1013.31 hPa N 17 km/h 16 km/h 87% 0 mm 0 W/m2
17:49 7 °C 5 °C 1013.28 hPa NW 18 km/h 13 km/h 88% 0 mm 0 W/m2
17:54 7 °C 5 °C 1013.21 hPa NW 14 km/h 12 km/h 89% 0 mm 0 W/m2
17:59 7 °C 5 °C 1013.07 hPa WNW 14 km/h 8 km/h 89% 0 mm 0 W/m2
18:04 7 °C 5 °C 1012.87 hPa WNW 11 km/h 10 km/h 88% 0 mm 0 W/m2
18:09 7 °C 5 °C 1012.8 hPa NW 15 km/h 11 km/h 88% 0 mm 0 W/m2
18:14 6 °C 5 °C 1012.77 hPa NNW 12 km/h 11 km/h 89% 0 mm 0 W/m2
18:19 6 °C 5 °C 1012.73 hPa NW 12 km/h 7 km/h 90% 0 mm 0 W/m2
18:24 7 °C 5 °C 1012.67 hPa NW 17 km/h 10 km/h 90% 0 mm 0 W/m2
18:29 7 °C 5 °C 1012.5 hPa NW 14 km/h 8 km/h 91% 0 mm 0 W/m2
18:34 7 °C 5 °C 1012.43 hPa NW 20 km/h 10 km/h 91% 0 mm 0 W/m2
18:39 6 °C 5 °C 1012.36 hPa NW 13 km/h 13 km/h 91% 0 mm 0 W/m2
18:44 7 °C 5 °C 1012.29 hPa NW 18 km/h 13 km/h 91% 0 mm 0 W/m2
18:49 7 °C 5 °C 1012.29 hPa NW 20 km/h 12 km/h 91% 0 mm 0 W/m2
18:54 7 °C 5 °C 1012.23 hPa NW 20 km/h 13 km/h 92% 0 mm 0 W/m2
18:59 7 °C 5 °C 1012.19 hPa W 20 km/h 16 km/h 92% 0 mm 0 W/m2
19:04 7 °C 6 °C 1012.16 hPa NNW 17 km/h 9 km/h 92% 0 mm 0 W/m2
19:09 7 °C 6 °C 1012.16 hPa NNW 18 km/h 11 km/h 92% 0 mm 0 W/m2
19:14 7 °C 5 °C 1012.09 hPa NNW 25 km/h 15 km/h 91% 0 mm 0 W/m2
19:19 7 °C 5 °C 1011.95 hPa NNW 19 km/h 15 km/h 91% 0 mm 0 W/m2
19:24 7 °C 5 °C 1011.92 hPa NW 25 km/h 15 km/h 91% 0 mm 0 W/m2
19:29 7 °C 5 °C 1011.85 hPa NNW 24 km/h 19 km/h 91% 0 mm 0 W/m2
19:34 7 °C 6 °C 1011.62 hPa WNW 24 km/h 18 km/h 91% 0 mm 0 W/m2
19:39 7 °C 6 °C 1011.38 hPa NNE 31 km/h 23 km/h 91% 0 mm 0 W/m2
19:44 7 °C 6 °C 1011.31 hPa NW 30 km/h 19 km/h 92% 0 mm 0 W/m2
19:49 7 °C 6 °C 1011.28 hPa N 22 km/h 17 km/h 92% 0 mm 0 W/m2
19:54 7 °C 5 °C 1011.24 hPa NNW 18 km/h 13 km/h 92% 0 mm 0 W/m2
19:59 7 °C 5 °C 1011.11 hPa NNW 24 km/h 21 km/h 92% 0 mm 0 W/m2
20:04 7 °C 5 °C 1010.97 hPa NNW 24 km/h 15 km/h 92% 0 mm 0 W/m2
20:09 7 °C 6 °C 1010.9 hPa N 28 km/h 25 km/h 92% 0 mm 0 W/m2
20:14 7 °C 6 °C 1010.8 hPa N 27 km/h 25 km/h 93% 0 mm 0 W/m2
20:19 7 °C 6 °C 1010.7 hPa N 20 km/h 14 km/h 93% 0 mm 0 W/m2
20:24 7 °C 5 °C 1010.53 hPa N 27 km/h 19 km/h 93% 0 mm 0 W/m2
20:29 7 °C 5 °C 1010.46 hPa NNW 33 km/h 20 km/h 93% 0 mm 0 W/m2
20:34 7 °C 5 °C 1010.43 hPa NW 27 km/h 19 km/h 92% 0 mm 0 W/m2
20:39 7 °C 5 °C 1010.46 hPa NW 23 km/h 18 km/h 92% 0 mm 0 W/m2
20:44 7 °C 5 °C 1010.67 hPa NNW 29 km/h 19 km/h 92% 0 mm 0 W/m2
20:49 7 °C 5 °C 1010.67 hPa NW 25 km/h 23 km/h 92% 0 mm 0 W/m2
20:54 7 °C 5 °C 1010.43 hPa NNW 28 km/h 24 km/h 92% 0 mm 0 W/m2
20:59 7 °C 5 °C 1010.16 hPa NNW 28 km/h 23 km/h 93% 0 mm 0 W/m2
21:04 6 °C 5 °C 1009.92 hPa NNE 30 km/h 22 km/h 93% 0 mm 0 W/m2
21:09 6 °C 5 °C 1009.89 hPa N 29 km/h 21 km/h 93% 0 mm 0 W/m2
21:14 6 °C 5 °C 1009.89 hPa NNW 26 km/h 20 km/h 92% 0 mm 0 W/m2
21:19 6 °C 5 °C 1009.85 hPa N 28 km/h 19 km/h 92% 0 mm 0 W/m2
21:24 6 °C 5 °C 1009.52 hPa N 27 km/h 21 km/h 92% 0 mm 0 W/m2
21:29 6 °C 5 °C 1009.35 hPa N 22 km/h 15 km/h 92% 0 mm 0 W/m2
21:34 6 °C 5 °C 1009.08 hPa NW 20 km/h 13 km/h 92% 0 mm 0 W/m2
21:39 6 °C 5 °C 1008.74 hPa N 18 km/h 12 km/h 92% 0 mm 0 W/m2
21:44 6 °C 5 °C 1008.57 hPa NNW 18 km/h 13 km/h 92% 0 mm 0 W/m2
21:49 6 °C 5 °C 1008.26 hPa NNW 17 km/h 14 km/h 92% 0 mm 0 W/m2
21:54 6 °C 5 °C 1008.03 hPa N 24 km/h 17 km/h 93% 0 mm 0 W/m2
21:59 6 °C 5 °C 1007.86 hPa NNE 23 km/h 19 km/h 93% 0 mm 0 W/m2
22:04 6 °C 5 °C 1007.76 hPa NNW 24 km/h 18 km/h 94% 0 mm 0 W/m2
22:09 6 °C 5 °C 1007.38 hPa NNW 27 km/h 20 km/h 95% 0 mm 0 W/m2
22:14 6 °C 5 °C 1007.11 hPa N 28 km/h 23 km/h 95% 0 mm 0 W/m2
22:19 6 °C 5 °C 1006.81 hPa NNW 27 km/h 22 km/h 96% 0 mm 0 W/m2
22:24 6 °C 5 °C 1006.54 hPa N 32 km/h 26 km/h 96% 0.2 mm 0 W/m2
22:29 6 °C 6 °C 1006.43 hPa N 29 km/h 24 km/h 97% 0.2 mm 0 W/m2
22:34 6 °C 6 °C 1006.23 hPa NNE 32 km/h 25 km/h 97% 0.2 mm 0 W/m2
22:39 6 °C 6 °C 1006.1 hPa NNE 31 km/h 25 km/h 97% 0.2 mm 0 W/m2
22:44 6 °C 6 °C 1005.86 hPa N 30 km/h 23 km/h 97% 0.2 mm 0 W/m2
22:49 6 °C 6 °C 1005.79 hPa W 32 km/h 23 km/h 97% 0.2 mm 0 W/m2
22:54 6 °C 6 °C 1005.72 hPa N 35 km/h 28 km/h 97% 0.41 mm 0 W/m2
22:59 6 °C 6 °C 1005.49 hPa N 36 km/h 28 km/h 97% 0.41 mm 0 W/m2
23:04 6 °C 6 °C 1005.52 hPa N 29 km/h 23 km/h 97% 0.41 mm 0 W/m2
23:09 6 °C 6 °C 1005.42 hPa N 27 km/h 18 km/h 97% 0.41 mm 0 W/m2
23:14 6 °C 6 °C 1005.15 hPa NW 29 km/h 26 km/h 97% 0.61 mm 0 W/m2
23:19 6 °C 6 °C 1004.98 hPa NNW 30 km/h 25 km/h 97% 0.61 mm 0 W/m2
23:24 6 °C 6 °C 1004.78 hPa N 35 km/h 27 km/h 97% 0.61 mm 0 W/m2
23:29 6 °C 6 °C 1004.64 hPa N 35 km/h 27 km/h 97% 0.41 mm 0 W/m2
23:34 6 °C 6 °C 1004.44 hPa NNE 35 km/h 28 km/h 97% 0.41 mm 0 W/m2
23:39 7 °C 6 °C 1004.2 hPa NNE 40 km/h 32 km/h 97% 0.41 mm 0 W/m2
23:44 7 °C 6 °C 1004.03 hPa NNE 33 km/h 26 km/h 98% 0.41 mm 0 W/m2
23:49 7 °C 6 °C 1003.89 hPa N 35 km/h 23 km/h 97% 0.41 mm 0 W/m2
23:54 7 °C 6 °C 1003.73 hPa N 29 km/h 25 km/h 97% 0.41 mm 0 W/m2
23:59 7 °C 6 °C 1003.49 hPa NNE 31 km/h 26 km/h 98% 0.2 mm 0 W/m2
Compliments of Weather Underground - 2 mb